Dades meteomassalio
Diari Summary for Setembre 21, 2017 Units:  Metric    English   Both
« Previous Day
Next Day »
Diari Semanal Mensual Anual Personalitzat
  Maxima: Minima: Mijana:
Temperatura: -17.8 °C -15 °C -9.2 °C
Rosada: -17.8 °C -18.6 °C -12.9 °C
Humitat: Humidity % 43 % 66 %
Velocitat del vent: 0 km/h 0 km/h 6.8 km/h
Racha vent: 0 km/h - -
Vent:- - SSE
Pressio: 0 hPa 34428.8 hPa -
Pluja: 0 mm    
Historical Graphs
 
 
Tabular Data for Setembre 21, 2017
Time Temperature Dew Point Pressure Wind Wind Speed Wind Gust Humidity Rainfall Rate (Hourly) solar Conditions
-17.8 °C -17.8 °C 0 hPa Calm     Humidity % 0 mm SolarRadiationWatts/m^2 W/m2 Conditions
00:02 -13.2 °C -18.6 °C 34554.1 hPa Calm     50 % 0 mm 0.0 W/m2 CLR
00:07 -12.8 °C -18.3 °C 34554.1 hPa Calm     50 % 0 mm 0.0 W/m2 CLR
00:12 -12.6 °C -18.2 °C 34554.1 hPa Calm     49 % 0 mm 0.0 W/m2 CLR
00:17 -12.6 °C -17.9 °C 34554.1 hPa Calm     51 % 0 mm 0.0 W/m2 CLR
00:22 -12.6 °C -17.9 °C 34554.1 hPa Calm     51 % 0 mm 0.0 W/m2 CLR
00:27 -12.8 °C -18 °C 34554.1 hPa Calm     52 % 0 mm 0.0 W/m2 CLR
00:32 -12.8 °C -18.3 °C 34554.1 hPa Calm     50 % 0 mm 0.0 W/m2 CLR
00:37 -12.8 °C -18.3 °C 34554.1 hPa Calm     50 % 0 mm 0.0 W/m2 CLR
00:42 -12.8 °C -18.3 °C 34554.1 hPa Calm     50 % 0 mm 0.0 W/m2 CLR
00:47 -13.2 °C -18.4 °C 34554.1 hPa Calm     51 % 0 mm 0.0 W/m2 CLR
00:52 -13.2 °C -18.3 °C 34554.1 hPa Calm     52 % 0 mm 0.0 W/m2 CLR
00:57 -13.4 °C -18.4 °C 34554.1 hPa Calm     53 % 0 mm 0.0 W/m2 CLR
01:02 -13.4 °C -18.3 °C 34554.1 hPa Calm     54 % 0 mm 0.0 W/m2 CLR
01:07 -13.8 °C -18.4 °C 34554.1 hPa Calm     55 % 0 mm 0.0 W/m2 CLR
01:12 -13.8 °C -18.4 °C 34554.1 hPa Calm     55 % 0 mm 0.0 W/m2 CLR
01:17 -13.8 °C -18.3 °C 34554.1 hPa Calm     56 % 0 mm 0.0 W/m2 CLR
01:22 -13.8 °C -18.4 °C 34554.1 hPa Calm     55 % 0 mm 0.0 W/m2 CLR
01:27 -13.8 °C -18.3 °C 34554.1 hPa Calm     56 % 0 mm 0.0 W/m2 CLR
01:32 -13.8 °C -18.3 °C 34554.1 hPa Calm     56 % 0 mm 0.0 W/m2 CLR
01:37 -13.8 °C -18.2 °C 34554.1 hPa Calm     57 % 0 mm 0.0 W/m2 CLR
01:42 -13.8 °C -18.1 °C 34554.1 hPa Calm     58 % 0 mm 0.0 W/m2 CLR
01:47 -13.8 °C -17.9 °C 34554.1 hPa Calm     59 % 0 mm 0.0 W/m2 CLR
01:52 -13.8 °C -17.9 °C 34554.1 hPa Calm     59 % 0 mm 0.0 W/m2 CLR
01:57 -14.1 °C -18.2 °C 34554.1 hPa Calm     59 % 0 mm 0.0 W/m2 CLR
02:02 -14.1 °C -18.1 °C 34554.1 hPa Calm     60 % 0 mm 0.0 W/m2 CLR
02:07 -14.1 °C -17.9 °C 34554.1 hPa Calm     61 % 0 mm 0.0 W/m2 CLR
02:13 -14.1 °C -17.9 °C 34554.1 hPa Calm     61 % 0 mm 0.0 W/m2 CLR
02:17 -14.1 °C -17.9 °C 34554.1 hPa Calm     61 % 0 mm 0.0 W/m2 CLR
02:22 -14.1 °C -17.8 °C 34554.1 hPa Calm     62 % 0 mm 0.0 W/m2 CLR
02:28 -14.1 °C -17.7 °C 34554.1 hPa Calm     63 % 0 mm 0.0 W/m2 CLR
02:33 -14.1 °C -17.4 °C 34554.1 hPa Calm     65 % 0 mm 0.0 W/m2 CLR
02:38 -14.1 °C -17.3 °C 34554.1 hPa Calm     66 % 0 mm 0.0 W/m2 CLR
02:43 -14.1 °C -17.3 °C 34554.1 hPa Calm     67 % 0 mm 0.0 W/m2 CLR
02:48 -14.1 °C -17.4 °C 34554.1 hPa Calm     65 % 0 mm 0.0 W/m2 CLR
02:53 -14.4 °C -17.6 °C 34554.1 hPa Calm     67 % 0 mm 0.0 W/m2 CLR
02:58 -14.4 °C -17.6 °C 34554.1 hPa Calm     67 % 0 mm 0.0 W/m2 CLR
03:03 -14.4 °C -17.6 °C 34554.1 hPa Calm     67 % 0 mm 0.0 W/m2 CLR
03:08 -14.4 °C -17.4 °C 34554.1 hPa Calm     68 % 0 mm 0.0 W/m2 CLR
03:13 -14.4 °C -17.2 °C 34554.1 hPa Calm     70 % 0 mm 0.0 W/m2 CLR
03:18 -14.4 °C -16.9 °C 34554.1 hPa Calm     73 % 0 mm 0.0 W/m2 CLR
03:23 -14.4 °C -16.8 °C 34554.1 hPa Calm     74 % 0 mm 0.0 W/m2 CLR
03:28 -14.7 °C -17.2 °C 34544 hPa Calm     73 % 0 mm 0.0 W/m2 CLR
03:33 -14.7 °C -17.2 °C 34544 hPa Calm     73 % 0 mm 0.0 W/m2 CLR
03:38 -14.7 °C -17 °C 34544 hPa Calm     75 % 0 mm 0.0 W/m2 CLR
03:43 -14.7 °C -17.1 °C 34544 hPa Calm     74 % 0 mm 0.0 W/m2 CLR
03:48 -14.7 °C -16.7 °C 34544 hPa Calm     78 % 0 mm 0.0 W/m2 CLR
03:53 -14.7 °C -16.6 °C 34544 hPa Calm     79 % 0 mm 0.0 W/m2 CLR
03:58 -14.7 °C -16.8 °C 34544 hPa Calm     76 % 0 mm 0.0 W/m2 CLR
04:03 -14.7 °C -16.8 °C 34544 hPa Calm     76 % 0 mm 0.0 W/m2 CLR
04:08 -14.7 °C -16.8 °C 34544 hPa Calm     77 % 0 mm 0.0 W/m2 CLR
04:13 -14.7 °C -16.8 °C 34544 hPa Calm     77 % 0 mm 0.0 W/m2 CLR
04:18 -14.7 °C -16.7 °C 34544 hPa Calm     78 % 0 mm 0.0 W/m2 CLR
04:23 -14.7 °C -16.7 °C 34544 hPa Calm     78 % 0 mm 0.0 W/m2 CLR
04:28 -14.7 °C -16.4 °C 34544 hPa Calm     80 % 0 mm 0.0 W/m2 CLR
04:33 -14.7 °C -16.3 °C 34544 hPa Calm     81 % 0 mm 0.0 W/m2 CLR
04:38 -14.7 °C -16.3 °C 34544 hPa Calm     81 % 0 mm 0.0 W/m2 CLR
04:43 -14.7 °C -16.3 °C 34544 hPa Calm     82 % 0 mm 0.0 W/m2 CLR
04:48 -14.7 °C -16.2 °C 34544 hPa Calm     83 % 0 mm 0.0 W/m2 CLR
04:53 -14.7 °C -16.3 °C 34544 hPa Calm     82 % 0 mm 0.0 W/m2 CLR
04:58 -14.7 °C -16.3 °C 34533.8 hPa Calm     81 % 0 mm 0.0 W/m2 CLR
05:03 -14.7 °C -16.3 °C 34533.8 hPa Calm     81 % 0 mm 0.0 W/m2 CLR
05:08 -14.7 °C -16.2 °C 34533.8 hPa Calm     83 % 0 mm 0.0 W/m2 CLR
05:14 -14.7 °C -16.3 °C 34533.8 hPa Calm     82 % 0 mm 0.0 W/m2 CLR
05:19 -14.7 °C -16.1 °C 34544 hPa Calm     84 % 0 mm 0.0 W/m2 CLR
05:21 -14.7 °C -16.1 °C 34544 hPa Calm     84 % 0 mm 0.0 W/m2 CLR
05:25 -14.7 °C -16.2 °C 34533.8 hPa Calm     83 % 0 mm 0.0 W/m2 CLR
05:27 -14.7 °C -16.1 °C 34544 hPa Calm     84 % 0 mm 0.0 W/m2 CLR
05:31 -15 °C -16.4 °C 34544 hPa Calm     84 % 0 mm 0.0 W/m2 CLR
05:36 -15 °C -16.4 °C 34544 hPa Calm     84 % 0 mm 0.0 W/m2 CLR
05:41 -15 °C -16.3 °C 34544 hPa Calm     85 % 0 mm 0.0 W/m2 CLR
05:46 -15 °C -16.3 °C 34533.8 hPa Calm     85 % 0 mm 0.0 W/m2 CLR
05:51 -14.7 °C -16.1 °C 34533.8 hPa Calm     84 % 0 mm 0.0 W/m2 CLR
05:56 -15 °C -16.3 °C 34544 hPa Calm     85 % 0 mm 0.0 W/m2 CLR
06:01 -14.7 °C -15.9 °C 34533.8 hPa Calm     86 % 0 mm 0.0 W/m2 CLR
06:06 -14.7 °C -15.8 °C 34533.8 hPa Calm     87 % 0 mm 0.0 W/m2 CLR
06:11 -14.7 °C -16 °C 34544 hPa Calm     85 % 0 mm 0.0 W/m2 CLR
06:16 -14.7 °C -16 °C 34533.8 hPa Calm     85 % 0 mm 0.0 W/m2 CLR
06:21 -15 °C -16.3 °C 34533.8 hPa Calm     85 % 0 mm 0.0 W/m2 CLR
06:26 -15 °C -16.3 °C 34533.8 hPa Calm     85 % 0 mm 0.0 W/m2 CLR
06:31 -14.7 °C -16 °C 34533.8 hPa Calm     85 % 0 mm 0.0 W/m2 CLR
06:36 -14.7 °C -15.8 °C 34533.8 hPa Calm     87 % 0 mm 0.0 W/m2 CLR
06:41 -14.7 °C -15.8 °C 34533.8 hPa Calm     87 % 0 mm 0.0 W/m2 CLR
06:46 -15 °C -16.1 °C 34533.8 hPa Calm     87 % 0 mm 0.0 W/m2 CLR
06:51 -14.7 °C -15.8 °C 34533.8 hPa Calm     87 % 0 mm 0.0 W/m2 CLR
06:56 -14.7 °C -15.9 °C 34533.8 hPa Calm     86 % 0 mm 0.0 W/m2 CLR
07:01 -14.7 °C -15.8 °C 34533.8 hPa Calm     87 % 0 mm 0.0 W/m2 CLR
07:06 -15 °C -16.1 °C 34533.8 hPa Calm     87 % 0 mm 0.0 W/m2 CLR
07:11 -15 °C -16.1 °C 34533.8 hPa Calm     87 % 0 mm 0.0 W/m2 CLR
07:16 -15 °C -16.1 °C 34533.8 hPa Calm     87 % 0 mm 0.0 W/m2 CLR
07:21 -15 °C -16.1 °C 34533.8 hPa Calm     87 % 0 mm 0.0 W/m2 CLR
07:26 -15 °C -16.2 °C 34544 hPa Calm     86 % 0 mm 0.0 W/m2 CLR
07:31 -15 °C -16.1 °C 34544 hPa Calm     87 % 0 mm 0.0 W/m2 CLR
07:36 -15 °C -16.1 °C 34544 hPa Calm     87 % 0 mm 0.0 W/m2 OVC
07:41 -15 °C -16.1 °C 34544 hPa Calm     87 % 0 mm 0.0 W/m2 OVC
07:46 -15 °C -16.1 °C 34544 hPa Calm     87 % 0 mm 5.0 W/m2 OVC
07:51 -15 °C -16.1 °C 34544 hPa Calm     87 % 0 mm 7.0 W/m2 BKN
07:57 -15 °C -16 °C 34544 hPa Calm     88 % 0 mm 11.0 W/m2 BKN
08:02 -15 °C -16 °C 34544 hPa Calm     88 % 0 mm 14.0 W/m2 BKN
08:07 -15 °C -16 °C 34554.1 hPa Calm     88 % 0 mm 19.0 W/m2 BKN
08:12 -14.7 °C -15.7 °C 34554.1 hPa Calm     88 % 0 mm 23.0 W/m2 BKN
08:17 -14.7 °C -15.7 °C 34554.1 hPa Calm     88 % 0 mm 25.0 W/m2 BKN
08:22 -14.7 °C -15.7 °C 34554.1 hPa Calm     88 % 0 mm 30.0 W/m2 BKN
08:27 -14.7 °C -15.7 °C 34554.1 hPa Calm     88 % 0 mm 39.0 W/m2 BKN
08:32 -14.1 °C -15.1 °C 34554.1 hPa Calm     88 % 0 mm 58.0 W/m2 SCT
08:37 -14.1 °C -15.2 °C 34554.1 hPa Calm     87 % 0 mm 74.0 W/m2 FEW
08:42 -14.1 °C -15.2 °C 34554.1 hPa Calm     87 % 0 mm 77.0 W/m2 FEW
08:47 -13.8 °C -14.9 °C 34554.1 hPa Calm     87 % 0 mm 102.0 W/m2 CLR
08:52 -13.8 °C -14.9 °C 34554.1 hPa Calm     86 % 0 mm 97.0 W/m2 CLR
08:57 -13.4 °C -14.7 °C 34554.1 hPa Calm     86 % 0 mm 132.0 W/m2 CLR
09:02 -13.4 °C -14.9 °C 34544 hPa Calm     84 % 0 mm 149.0 W/m2 CLR
09:07 -13.2 °C -14.7 °C 34554.1 hPa Calm     83 % 0 mm 171.0 W/m2 CLR
09:12 -12.8 °C -14.4 °C 34554.1 hPa Calm     82 % 0 mm 190.0 W/m2 CLR
09:17 -12.6 °C -14.3 °C 34554.1 hPa Calm     81 % 0 mm 207.0 W/m2 CLR
09:22 -12.6 °C -14.3 °C 34554.1 hPa Calm     81 % 0 mm 223.0 W/m2 CLR
09:27 -12.2 °C -14.1 °C 34554.1 hPa Calm     80 % 0 mm 213.0 W/m2 CLR
09:32 -11.9 °C -13.9 °C 34554.1 hPa Calm     78 % 0 mm 258.0 W/m2 CLR
09:37 -11.6 °C -13.8 °C 34554.1 hPa Calm     76 % 0 mm 271.0 W/m2 CLR
09:42 -11.6 °C -14 °C 34554.1 hPa Calm     75 % 0 mm 276.0 W/m2 CLR
09:47 -11.3 °C -13.7 °C 34554.1 hPa Calm     75 % 0 mm 281.0 W/m2 CLR
09:52 -11.3 °C -13.7 °C 34554.1 hPa Calm     75 % 0 mm 309.0 W/m2 CLR
09:57 -10.7 °C -13.2 °C 34554.1 hPa Calm     74 % 0 mm 325.0 W/m2 CLR
10:02 -10.4 °C -13.1 °C 34554.1 hPa Calm     72 % 0 mm 338.0 W/m2 CLR
10:07 -10.4 °C -13.2 °C 34567.7 hPa Calm     71 % 0 mm 360.0 W/m2 CLR
10:12 -10.1 °C -13.1 °C 34554.1 hPa Calm     70 % 0 mm 374.0 W/m2 CLR
10:17 -9.8 °C -13 °C 34567.7 hPa Calm     68 % 0 mm 390.0 W/m2 CLR
10:22 -9.8 °C -13.1 °C 34554.1 hPa Calm     67 % 0 mm 404.0 W/m2 CLR
10:27 -9.4 °C -13.2 °C 34554.1 hPa Calm     64 % 0 mm 417.0 W/m2 CLR
10:32 -9.1 °C -13 °C 34554.1 hPa Calm     63 % 0 mm 432.0 W/m2 CLR
10:33 -9.1 °C -13.2 °C 34554.1 hPa Calm     62 % 0 mm 436.0 W/m2 CLR
10:38 -8.8 °C -13 °C 34554.1 hPa Calm     61 % 0 mm 448.0 W/m2 CLR
10:43 -8.8 °C -12.9 °C 34554.1 hPa Calm     62 % 0 mm 454.0 W/m2 CLR
10:48 -8.5 °C -12.3 °C 34554.1 hPa Calm     64 % 0 mm 469.0 W/m2 CLR
10:53 -8.5 °C -12.1 °C 34554.1 hPa Calm     66 % 0 mm 482.0 W/m2 CLR
10:58 -8.2 °C -12.1 °C 34554.1 hPa North 5.1 km/h 5.1 km/h 64 % 0 mm 510.0 W/m2 CLR
11:03 -8.2 °C -12.4 °C 34554.1 hPa NNW 6 km/h 6 km/h 61 % 0 mm 520.0 W/m2 CLR
11:08 -7.9 °C -12.1 °C 34554.1 hPa NNE 9 km/h 9 km/h 61 % 0 mm 531.0 W/m2 CLR
11:13 -7.6 °C -11.8 °C 34554.1 hPa NNW 9 km/h 9 km/h 61 % 0 mm 543.0 W/m2 CLR
11:18 -7.6 °C -12.3 °C 34554.1 hPa North 6 km/h 6 km/h 58 % 0 mm 552.0 W/m2 CLR
11:23 -7.6 °C -12.1 °C 34554.1 hPa NNW 6 km/h 6 km/h 59 % 0 mm 564.0 W/m2 CLR
11:28 -7.3 °C -11.8 °C 34554.1 hPa NNE 7.7 km/h 7.7 km/h 59 % 0 mm 573.0 W/m2 CLR
11:33 -7.3 °C -12 °C 34554.1 hPa NW 9 km/h 9 km/h 58 % 0 mm 578.0 W/m2 CLR
11:38 -7.3 °C -11.8 °C 34554.1 hPa Calm   0.5 km/h 59 % 0 mm 598.0 W/m2 CLR
11:43 -7 °C -11.7 °C 34554.1 hPa NW 10.3 km/h 10.3 km/h 58 % 0 mm 610.0 W/m2 CLR
11:48 -7 °C -11.6 °C 34544 hPa NNE 10.3 km/h 10.3 km/h 59 % 0 mm 617.0 W/m2 CLR
11:53 -6.7 °C -11.4 °C 34544 hPa NNW 6 km/h 6 km/h 58 % 0 mm 628.0 W/m2 CLR
11:58 -6.7 °C -11.4 °C 34544 hPa NNE 7.7 km/h 7.7 km/h 58 % 0 mm 636.0 W/m2 CLR
12:03 -6.7 °C -11.4 °C 34544 hPa North 9 km/h 9 km/h 58 % 0 mm 645.0 W/m2 CLR
12:08 -6.3 °C -11.1 °C 34544 hPa NNW 7.7 km/h 7.7 km/h 58 % 0 mm 657.0 W/m2 CLR
12:13 -6.3 °C -10.9 °C 34544 hPa WNW 9 km/h 9 km/h 59 % 0 mm 664.0 W/m2 CLR
12:18 -6.3 °C -10.9 °C 34533.8 hPa NW 11.9 km/h 11.9 km/h 59 % 0 mm 673.0 W/m2 CLR
12:23 -6.3 °C -10.8 °C 34533.8 hPa Calm     60 % 0 mm 682.0 W/m2 CLR
12:28 -6.1 °C -10.5 °C 34533.8 hPa NW 9 km/h 9 km/h 60 % 0 mm 691.0 W/m2 CLR
12:33 -5.7 °C -10.2 °C 34533.8 hPa NNE 9 km/h 9 km/h 60 % 0 mm 700.0 W/m2 CLR
12:38 -5.7 °C -10.4 °C 34533.8 hPa NNW 15 km/h 15 km/h 59 % 0 mm 708.0 W/m2 CLR
12:43 -5.4 °C -9.9 °C 34533.8 hPa NNW 9 km/h 9 km/h 60 % 0 mm 710.0 W/m2 CLR
12:48 -5.4 °C -9.9 °C 34520.3 hPa NW 9 km/h 9 km/h 60 % 0 mm 724.0 W/m2 CLR
12:53 -5.4 °C -9.9 °C 34520.3 hPa NNW 10.3 km/h 10.3 km/h 60 % 0 mm 735.0 W/m2 CLR
12:58 -5.1 °C -9.7 °C 34520.3 hPa NW 10.3 km/h 10.3 km/h 60 % 0 mm 751.0 W/m2 CLR
13:03 -5.1 °C -9.5 °C 34520.3 hPa Calm     61 % 0 mm 752.0 W/m2 CLR
13:08 -4.8 °C -9.4 °C 34510.1 hPa Calm     60 % 0 mm 752.0 W/m2 CLR
13:13 -4.8 °C -9.5 °C 34510.1 hPa NW 10.3 km/h 10.3 km/h 59 % 0 mm 737.0 W/m2 CLR
13:18 -4.8 °C -9.4 °C 34510.1 hPa WNW 3.1 km/h 3.1 km/h 60 % 0 mm 714.0 W/m2 CLR
13:23 -4.8 °C -9.5 °C 34510.1 hPa Calm     59 % 0 mm 717.0 W/m2 CLR
13:28 -4.8 °C -9.8 °C 34510.1 hPa NNW 15 km/h 15 km/h 57 % 0 mm 751.0 W/m2 CLR
13:33 -4.5 °C -9.4 °C 34510.1 hPa NW 9 km/h 9 km/h 58 % 0 mm 770.0 W/m2 CLR
13:38 -4.5 °C -9.6 °C 34496.6 hPa NW 10.3 km/h 10.3 km/h 57 % 0 mm 766.0 W/m2 CLR
13:43 -4.5 °C -9.6 °C 34496.6 hPa NNW 15 km/h 15 km/h 57 % 0 mm 770.0 W/m2 CLR
13:48 -4.2 °C -9.4 °C 34496.6 hPa NW 26.9 km/h 26.9 km/h 56 % 0 mm 756.0 W/m2 CLR
13:53 -4.2 °C -9.4 °C 34486.4 hPa NW 9 km/h 9 km/h 56 % 0 mm 710.0 W/m2 CLR
13:58 -4.2 °C -9.6 °C 34486.4 hPa NW 7.7 km/h 7.7 km/h 55 % 0 mm 763.0 W/m2 CLR
14:03 -3.9 °C -9.3 °C 34486.4 hPa West 15 km/h 15 km/h 55 % 0 mm 768.0 W/m2 CLR
14:08 -3.6 °C -9 °C 34486.4 hPa NW 10.3 km/h 10.3 km/h 55 % 0 mm 766.0 W/m2 CLR
14:13 -3.6 °C -9.1 °C 34486.4 hPa NW 20.9 km/h 20.9 km/h 54 % 0 mm 765.0 W/m2 CLR
14:18 -3.6 °C -9.3 °C 34476.3 hPa WNW 17.9 km/h 17.9 km/h 53 % 0 mm 763.0 W/m2 CLR
14:23 -3.6 °C -9.6 °C 34476.3 hPa NNW 9 km/h 9 km/h 51 % 0 mm 766.0 W/m2 CLR
14:28 -3.3 °C -9.2 °C 34476.3 hPa NNW 23.8 km/h 23.8 km/h 52 % 0 mm 765.0 W/m2 CLR
14:33 -3.3 °C -9.3 °C 34476.3 hPa Calm     51 % 0 mm 766.0 W/m2 CLR
14:38 -2.9 °C -9.4 °C 34462.7 hPa NW 29.8 km/h 29.8 km/h 49 % 0 mm 754.0 W/m2 CLR
14:43 -2.9 °C -9.6 °C 34462.7 hPa North 11.9 km/h 12.2 km/h 48 % 0 mm 758.0 W/m2 CLR
14:48 -2.9 °C -9.8 °C 34462.7 hPa West 20.9 km/h 20.9 km/h 47 % 0 mm 761.0 W/m2 CLR
14:53 -2.9 °C -10.2 °C 34462.7 hPa NW 23.8 km/h 23.8 km/h 45 % 0 mm 759.0 W/m2 CLR
14:58 -2.7 °C -10.1 °C 34462.7 hPa NW 26.9 km/h 26.9 km/h 44 % 0 mm 719.0 W/m2 CLR
15:03 -2.7 °C -10.2 °C 34462.7 hPa NW 11.9 km/h 11.9 km/h 43 % 0 mm 661.0 W/m2 CLR
15:08 -2.7 °C -10.1 °C 34462.7 hPa Calm   0.5 km/h 44 % 0 mm 689.0 W/m2 CLR
15:13 -2.7 °C -10.1 °C 34462.7 hPa NW 15 km/h 15 km/h 44 % 0 mm 649.0 W/m2 CLR
15:18 -2.7 °C -9.8 °C 34462.7 hPa Calm     45 % 0 mm 679.0 W/m2 CLR
15:23 -2.3 °C -9.6 °C 34452.6 hPa Calm     45 % 0 mm 761.0 W/m2 CLR
15:28 -2.3 °C -9.4 °C 34452.6 hPa West 11.9 km/h 11.9 km/h 46 % 0 mm 782.0 W/m2 CLR
15:34 -2.1 °C -9.1 °C 34452.6 hPa NW 32.8 km/h 32.8 km/h 46 % 0 mm 779.0 W/m2 CLR
15:39 -2.3 °C -9.4 °C 34452.6 hPa NW 23.8 km/h 23.8 km/h 46 % 0 mm 742.0 W/m2 CLR
15:44 -2.1 °C -8.9 °C 34452.6 hPa NE 23.8 km/h 23.8 km/h 47 % 0 mm 712.0 W/m2 CLR
15:49 -2.3 °C -9.2 °C 34452.6 hPa NNE 23.8 km/h 23.8 km/h 47 % 0 mm 647.0 W/m2 CLR
15:54 -2.3 °C -9.2 °C 34442.4 hPa NNE 23.8 km/h 23.8 km/h 47 % 0 mm 729.0 W/m2 CLR
15:59 -2.3 °C -9.2 °C 34442.4 hPa North 12.9 km/h 12.9 km/h 47 % 0 mm 712.0 W/m2 CLR
16:04 -2.7 °C -9.7 °C 34442.4 hPa NNE 26.9 km/h 26.9 km/h 46 % 0 mm 656.0 W/m2 CLR
16:09 -2.7 °C -9.7 °C 34442.4 hPa NE 23.8 km/h 23.8 km/h 46 % 0 mm 397.0 W/m2 CLR
16:14 -2.7 °C -9.7 °C 34442.4 hPa NNE 23.8 km/h 23.8 km/h 46 % 0 mm 519.0 W/m2 CLR
16:19 -2.7 °C -9.5 °C 34442.4 hPa NE 28.5 km/h 28.5 km/h 47 % 0 mm 285.0 W/m2 CLR
16:24 -2.9 °C -9.6 °C 34442.4 hPa NNE 26.9 km/h 26.9 km/h 48 % 0 mm 339.0 W/m2 CLR
16:29 -2.9 °C -9.4 °C 34442.4 hPa NE 17.9 km/h 17.9 km/h 49 % 0 mm 536.0 W/m2 CLR
16:34 -2.7 °C -9.5 °C 34442.4 hPa NE 9 km/h 9 km/h 47 % 0 mm 510.0 W/m2 CLR
16:39 -2.7 °C -9.5 °C 34442.4 hPa NE 23.8 km/h 23.8 km/h 47 % 0 mm 482.0 W/m2 CLR
16:44 -2.3 °C -9.2 °C 34428.8 hPa NNE 17.9 km/h 17.9 km/h 47 % 0 mm 573.0 W/m2 CLR
16:49 -2.3 °C -9.2 °C 34428.8 hPa North 15.6 km/h 15.6 km/h 47 % 0 mm 585.0 W/m2 CLR
16:54 -2.3 °C -9.4 °C 34428.8 hPa NNE 23.8 km/h 23.8 km/h 46 % 0 mm 543.0 W/m2 CLR
16:59 -2.3 °C -9.6 °C 34428.8 hPa North 9 km/h 9 km/h 45 % 0 mm 380.0 W/m2 CLR
17:04 -2.7 °C -9.7 °C 34428.8 hPa ENE 29.8 km/h 29.8 km/h 46 % 0 mm 332.0 W/m2 CLR
17:09 -2.7 °C -9.7 °C 34428.8 hPa NNE 15 km/h 15 km/h 46 % 0 mm 432.0 W/m2 CLR
17:14 -2.7 °C -9.3 °C 34428.8 hPa North 26.9 km/h 26.9 km/h 48 % 0 mm 287.0 W/m2 CLR
17:19 -2.9 °C -9.6 °C 34428.8 hPa North 29.8 km/h 29.8 km/h 48 % 0 mm 476.0 W/m2 CLR
17:24 -2.7 °C -9.1 °C 34428.8 hPa NNE 26.9 km/h 26.9 km/h 49 % 0 mm 450.0 W/m2 CLR
17:29 -2.7 °C -9.1 °C 34428.8 hPa NNE 23.3 km/h 23.3 km/h 49 % 0 mm 367.0 W/m2 CLR
17:34 -2.7 °C -9.1 °C 34428.8 hPa NNE 25.9 km/h 25.9 km/h 49 % 0 mm 431.0 W/m2 CLR
17:39 -2.7 °C -9.1 °C 34428.8 hPa NNE 29.8 km/h 29.8 km/h 49 % 0 mm 401.0 W/m2 CLR
17:44 -2.7 °C -8.9 °C 34428.8 hPa ENE 23.8 km/h 23.8 km/h 50 % 0 mm 339.0 W/m2 CLR
17:49 -2.7 °C -8.9 °C 34428.8 hPa ENE 25.9 km/h 25.9 km/h 50 % 0 mm 336.0 W/m2 CLR
17:54 -2.7 °C -8.8 °C 34428.8 hPa NE 15.6 km/h 15.6 km/h 51 % 0 mm 241.0 W/m2 CLR
17:59 -3.3 °C -9.2 °C 34428.8 hPa NNE 26.9 km/h 26.9 km/h 52 % 0 mm 262.0 W/m2 CLR
18:04 -3.3 °C -9 °C 34428.8 hPa NE 29.8 km/h 29.8 km/h 53 % 0 mm 179.0 W/m2 CLR
18:09 -3.6 °C -9.1 °C 34428.8 hPa NE 23.8 km/h 23.8 km/h 54 % 0 mm 135.0 W/m2 CLR
18:14 -3.6 °C -9 °C 34442.4 hPa NNE 29.8 km/h 29.8 km/h 55 % 0 mm 142.0 W/m2 CLR
18:15 -3.6 °C -9 °C 34442.4 hPa NE 26.9 km/h 26.9 km/h 55 % 0 mm 130.0 W/m2 CLR
18:20 -3.9 °C -9.1 °C 34442.4 hPa NE 26.9 km/h 26.9 km/h 56 % 0 mm 206.0 W/m2 CLR
18:25 -3.6 °C -8.8 °C 34442.4 hPa NE 29.8 km/h 29.8 km/h 56 % 0 mm 244.0 W/m2 CLR
18:30 -3.6 °C -8.8 °C 34442.4 hPa NNE 29.8 km/h 29.8 km/h 56 % 0 mm 234.0 W/m2 CLR
18:35 -3.6 °C -8.8 °C 34442.4 hPa NE 26.9 km/h 26.9 km/h 56 % 0 mm 223.0 W/m2 CLR
18:40 -3.6 °C -8.8 °C 34442.4 hPa NE 23.8 km/h 23.8 km/h 56 % 0 mm 199.0 W/m2 CLR
18:45 -3.6 °C -8.8 °C 34442.4 hPa NE 29.8 km/h 29.8 km/h 56 % 0 mm 162.0 W/m2 CLR
18:50 -3.6 °C -8.7 °C 34442.4 hPa ENE 29.8 km/h 29.8 km/h 57 % 0 mm 156.0 W/m2 CLR
18:55 -3.6 °C -8.7 °C 34442.4 hPa NE 26.9 km/h 26.9 km/h 57 % 0 mm 139.0 W/m2 CLR
19:00 -3.9 °C -8.9 °C 34442.4 hPa ENE 20.9 km/h 20.9 km/h 57 % 0 mm 114.0 W/m2 CLR
19:05 -3.9 °C -8.9 °C 34442.4 hPa ENE 26.9 km/h 26.9 km/h 57 % 0 mm 97.0 W/m2 CLR
19:10 -4.2 °C -9.2 °C 34442.4 hPa ENE 29.8 km/h 29.8 km/h 57 % 0 mm 81.0 W/m2 FEW
19:15 -4.2 °C -9.1 °C 34442.4 hPa NE 32.8 km/h 32.8 km/h 58 % 0 mm 63.0 W/m2 SCT
19:20 -4.2 °C -9.1 °C 34442.4 hPa ENE 32.8 km/h 32.8 km/h 58 % 0 mm 54.0 W/m2 SCT
19:25 -4.5 °C -9.2 °C 34442.4 hPa NE 32.8 km/h 32.8 km/h 59 % 0 mm 44.0 W/m2 SCT
19:30 -4.5 °C -9.1 °C 34442.4 hPa NE 20.9 km/h 20.9 km/h 60 % 0 mm 37.0 W/m2 BKN
19:35 -4.8 °C -9.4 °C 34442.4 hPa NE 10.3 km/h 10.3 km/h 60 % 0 mm 30.0 W/m2 BKN
19:40 -4.8 °C -9.2 °C 34442.4 hPa ENE 23.3 km/h 23.3 km/h 61 % 0 mm 23.0 W/m2 BKN
19:45 -5.1 °C -9.4 °C 34452.6 hPa ENE 23.8 km/h 23.8 km/h 62 % 0 mm 18.0 W/m2 BKN
19:50 -5.1 °C -9.4 °C 34452.6 hPa ENE 20.9 km/h 20.9 km/h 62 % 0 mm 14.0 W/m2 BKN
19:55 -5.1 °C -9.4 °C 34452.6 hPa ENE 23.8 km/h 23.8 km/h 62 % 0 mm 7.0 W/m2 BKN
20:00 -5.4 °C -9.6 °C 34452.6 hPa NE 12.9 km/h 12.9 km/h 63 % 0 mm 0.0 W/m2 CLR
20:05 -5.4 °C -9.4 °C 34452.6 hPa NNE 23.8 km/h 23.8 km/h 64 % 0 mm 0.0 W/m2 CLR
20:10 -5.7 °C -9.6 °C 34452.6 hPa NE 15 km/h 15 km/h 65 % 0 mm 0.0 W/m2 CLR
20:15 -5.7 °C -9.6 °C 34452.6 hPa NE 11.9 km/h 11.9 km/h 65 % 0 mm 0.0 W/m2 CLR
20:20 -6.1 °C -9.8 °C 34462.7 hPa Calm     65 % 0 mm 0.0 W/m2 CLR
20:25 -6.3 °C -10 °C 34462.7 hPa Calm     66 % 0 mm 0.0 W/m2 CLR
20:30 -6.3 °C -10 °C 34462.7 hPa Calm     66 % 0 mm 0.0 W/m2 CLR
20:35 -6.7 °C -10.2 °C 34462.7 hPa Calm     67 % 0 mm 0.0 W/m2 CLR
20:40 -7 °C -10.4 °C 34462.7 hPa Calm     67 % 0 mm 0.0 W/m2 CLR
20:45 -7 °C -10.3 °C 34462.7 hPa Calm     68 % 0 mm 0.0 W/m2 CLR
20:50 -7.3 °C -10.7 °C 34476.3 hPa Calm     68 % 0 mm 0.0 W/m2 CLR
20:55 -7.3 °C -10.7 °C 34462.7 hPa Calm     68 % 0 mm 0.0 W/m2 CLR
21:00 -7.6 °C -10.8 °C 34476.3 hPa Calm     69 % 0 mm 0.0 W/m2 CLR
21:05 -7.6 °C -10.8 °C 34476.3 hPa Calm     69 % 0 mm 0.0 W/m2 CLR
21:10 -7.9 °C -11.1 °C 34476.3 hPa ENE 9 km/h 9 km/h 69 % 0 mm 0.0 W/m2 CLR
21:15 -8.2 °C -11.4 °C 34476.3 hPa Calm     69 % 0 mm 0.0 W/m2 CLR
21:20 -8.2 °C -11.3 °C 34476.3 hPa Calm     70 % 0 mm 0.0 W/m2 CLR
21:25 -8.5 °C -11.6 °C 34476.3 hPa Calm     70 % 0 mm 0.0 W/m2 CLR
21:30 -8.5 °C -11.4 °C 34476.3 hPa Calm     71 % 0 mm 0.0 W/m2 CLR
21:35 -8.8 °C -11.6 °C 34476.3 hPa Calm     72 % 0 mm 0.0 W/m2 CLR
21:40 -8.8 °C -11.6 °C 34486.4 hPa NE 9 km/h 9 km/h 72 % 0 mm 0.0 W/m2 CLR
21:45 -8.8 °C -11.6 °C 34486.4 hPa NE 9 km/h 9 km/h 72 % 0 mm 0.0 W/m2 CLR
21:50 -8.8 °C -11.5 °C 34486.4 hPa Calm     73 % 0 mm 0.0 W/m2 CLR
21:55 -8.8 °C -11.5 °C 34486.4 hPa Calm     73 % 0 mm 0.0 W/m2 CLR
22:00 -8.8 °C -11.5 °C 34486.4 hPa Calm     73 % 0 mm 0.0 W/m2 CLR
22:05 -8.8 °C -11.4 °C 34486.4 hPa Calm     74 % 0 mm 0.0 W/m2 CLR
22:10 -9.1 °C -11.7 °C 34486.4 hPa Calm     74 % 0 mm 0.0 W/m2 CLR
22:15 -9.1 °C -11.7 °C 34486.4 hPa Calm     74 % 0 mm 0.0 W/m2 CLR
22:20 -9.1 °C -11.6 °C 34486.4 hPa Calm     75 % 0 mm 0.0 W/m2 CLR
22:21 -9.1 °C -11.7 °C 34486.4 hPa Calm     74 % 0 mm 0.0 W/m2 CLR
22:26 -9.4 °C -12 °C 34486.4 hPa Calm     74 % 0 mm 0.0 W/m2 CLR
22:31 -9.4 °C -11.9 °C 34486.4 hPa Calm     75 % 0 mm 0.0 W/m2 CLR
22:36 -9.4 °C -11.8 °C 34496.6 hPa Calm     76 % 0 mm 0.0 W/m2 CLR
22:41 -9.4 °C -11.8 °C 34486.4 hPa Calm     76 % 0 mm 0.0 W/m2 CLR
22:46 -9.4 °C -11.8 °C 34486.4 hPa Calm     76 % 0 mm 0.0 W/m2 CLR
22:51 -9.4 °C -11.7 °C 34496.6 hPa ENE 9 km/h 9 km/h 77 % 0 mm 0.0 W/m2 CLR
22:56 -9.4 °C -11.7 °C 34496.6 hPa Calm     77 % 0 mm 0.0 W/m2 CLR
23:01 -9.4 °C -11.7 °C 34496.6 hPa Calm     77 % 0 mm 0.0 W/m2 CLR
23:06 -9.4 °C -11.7 °C 34496.6 hPa Calm     77 % 0 mm 0.0 W/m2 CLR
23:11 -9.4 °C -11.7 °C 34496.6 hPa Calm     77 % 0 mm 0.0 W/m2 CLR
23:16 -9.4 °C -11.7 °C 34496.6 hPa Calm     77 % 0 mm 0.0 W/m2 CLR
23:21 -9.4 °C -11.4 °C 34496.6 hPa Calm     79 % 0 mm 0.0 W/m2 CLR
23:26 -9.4 °C -11.6 °C 34496.6 hPa Calm     78 % 0 mm 0.0 W/m2 CLR
23:31 -9.4 °C -11.4 °C 34496.6 hPa Calm     79 % 0 mm 0.0 W/m2 CLR
23:36 -9.4 °C -11.4 °C 34496.6 hPa Calm     79 % 0 mm 0.0 W/m2 CLR
23:38 -9.4 °C -11.4 °C 34496.6 hPa Calm     79 % 0 mm 0.0 W/m2 CLR
23:43 -9.4 °C -11.4 °C 34496.6 hPa Calm     79 % 0 mm 0.0 W/m2 CLR
23:48 -9.4 °C -11.4 °C 34496.6 hPa Calm     79 % 0 mm 0.0 W/m2 CLR
23:53 -9.4 °C -11.4 °C 34510.1 hPa Calm     79 % 0 mm 0.0 W/m2 CLR
23:58 -9.4 °C -11.3 °C 34510.1 hPa Calm     80 % 0 mm 0.0 W/m2 CLR
Lo Temps de Massalio
Compliments of Weather Underground - 1.25 mb